sensor_id;sensor_type;location;lat;lon;timestamp;P1;durP1;ratioP1;P2;durP2;ratioP2
42132;SDS011;70517;48.192;16.278;2023-06-04T00:00:50;1.90;;;1.60;;
42132;SDS011;70517;48.192;16.278;2023-06-04T00:03:50;2.80;;;1.83;;
42132;SDS011;70517;48.192;16.278;2023-06-04T00:06:50;2.50;;;1.73;;
42132;SDS011;70517;48.192;16.278;2023-06-04T00:09:51;1.93;;;1.47;;
42132;SDS011;70517;48.192;16.278;2023-06-04T00:12:51;3.10;;;1.88;;
42132;SDS011;70517;48.192;16.278;2023-06-04T00:15:52;2.77;;;1.23;;
42132;SDS011;70517;48.192;16.278;2023-06-04T00:18:52;2.40;;;1.70;;
42132;SDS011;70517;48.192;16.278;2023-06-04T00:21:52;3.40;;;1.53;;
42132;SDS011;70517;48.192;16.278;2023-06-04T00:24:52;2.57;;;1.40;;
42132;SDS011;70517;48.192;16.278;2023-06-04T00:27:53;1.97;;;1.60;;
42132;SDS011;70517;48.192;16.278;2023-06-04T00:30:53;2.77;;;1.53;;
42132;SDS011;70517;48.192;16.278;2023-06-04T00:33:53;2.60;;;1.43;;
42132;SDS011;70517;48.192;16.278;2023-06-04T00:36:53;2.90;;;1.57;;
42132;SDS011;70517;48.192;16.278;2023-06-04T00:39:54;2.63;;;1.70;;
42132;SDS011;70517;48.192;16.278;2023-06-04T00:42:54;2.43;;;1.40;;
42132;SDS011;70517;48.192;16.278;2023-06-04T00:45:55;2.13;;;1.55;;
42132;SDS011;70517;48.192;16.278;2023-06-04T00:48:55;2.43;;;1.67;;
42132;SDS011;70517;48.192;16.278;2023-06-04T00:51:56;2.67;;;1.63;;
42132;SDS011;70517;48.192;16.278;2023-06-04T00:54:56;1.70;;;1.40;;
42132;SDS011;70517;48.192;16.278;2023-06-04T00:57:57;2.33;;;1.70;;
42132;SDS011;70517;48.192;16.278;2023-06-04T01:00:57;3.63;;;1.40;;
42132;SDS011;70517;48.192;16.278;2023-06-04T01:04:00;1.63;;;1.38;;
42132;SDS011;70517;48.192;16.278;2023-06-04T01:07:03;2.22;;;1.58;;
42132;SDS011;70517;48.192;16.278;2023-06-04T01:10:03;4.15;;;1.45;;
42132;SDS011;70517;48.192;16.278;2023-06-04T01:13:03;2.30;;;1.23;;
42132;SDS011;70517;48.192;16.278;2023-06-04T01:16:04;1.60;;;1.37;;
42132;SDS011;70517;48.192;16.278;2023-06-04T01:19:04;2.20;;;1.60;;
42132;SDS011;70517;48.192;16.278;2023-06-04T01:22:17;2.42;;;1.50;;
42132;SDS011;70517;48.192;16.278;2023-06-04T01:25:21;2.78;;;1.30;;
42132;SDS011;70517;48.192;16.278;2023-06-04T01:28:23;2.53;;;1.60;;
42132;SDS011;70517;48.192;16.278;2023-06-04T01:31:26;2.72;;;1.55;;
42132;SDS011;70517;48.192;16.278;2023-06-04T01:34:28;1.88;;;1.40;;
42132;SDS011;70517;48.192;16.278;2023-06-04T01:37:28;3.23;;;1.40;;
42132;SDS011;70517;48.192;16.278;2023-06-04T01:40:29;2.53;;;1.40;;
42132;SDS011;70517;48.192;16.278;2023-06-04T01:43:29;2.03;;;1.30;;
42132;SDS011;70517;48.192;16.278;2023-06-04T01:46:30;2.08;;;1.45;;
42132;SDS011;70517;48.192;16.278;2023-06-04T01:49:31;3.20;;;1.60;;
42132;SDS011;70517;48.192;16.278;2023-06-04T01:52:31;1.90;;;1.33;;
42132;SDS011;70517;48.192;16.278;2023-06-04T01:55:32;2.03;;;1.60;;
42132;SDS011;70517;48.192;16.278;2023-06-04T01:58:33;1.60;;;1.20;;
42132;SDS011;70517;48.192;16.278;2023-06-04T02:01:33;2.13;;;1.50;;
42132;SDS011;70517;48.192;16.278;2023-06-04T02:04:34;3.07;;;1.27;;
42132;SDS011;70517;48.192;16.278;2023-06-04T02:07:36;2.40;;;1.60;;
42132;SDS011;70517;48.192;16.278;2023-06-04T02:10:38;3.13;;;1.40;;
42132;SDS011;70517;48.192;16.278;2023-06-04T02:13:38;1.70;;;1.50;;
42132;SDS011;70517;48.192;16.278;2023-06-04T02:16:39;3.40;;;1.33;;
42132;SDS011;70517;48.192;16.278;2023-06-04T02:19:40;1.90;;;1.52;;
42132;SDS011;70517;48.192;16.278;2023-06-04T02:22:44;1.75;;;1.30;;
42132;SDS011;70517;48.192;16.278;2023-06-04T02:25:45;2.97;;;1.57;;
42132;SDS011;70517;48.192;16.278;2023-06-04T02:28:45;2.08;;;1.50;;
42132;SDS011;70517;48.192;16.278;2023-06-04T02:31:45;3.57;;;1.37;;
42132;SDS011;70517;48.192;16.278;2023-06-04T02:34:46;2.17;;;1.47;;
42132;SDS011;70517;48.192;16.278;2023-06-04T02:37:46;2.77;;;1.60;;
42132;SDS011;70517;48.192;16.278;2023-06-04T02:40:46;2.10;;;1.40;;
42132;SDS011;70517;48.192;16.278;2023-06-04T02:43:46;2.10;;;1.30;;
42132;SDS011;70517;48.192;16.278;2023-06-04T02:46:47;1.77;;;1.37;;
42132;SDS011;70517;48.192;16.278;2023-06-04T02:49:47;2.30;;;1.37;;
42132;SDS011;70517;48.192;16.278;2023-06-04T02:52:47;1.97;;;1.43;;
42132;SDS011;70517;48.192;16.278;2023-06-04T02:55:47;2.17;;;1.40;;
42132;SDS011;70517;48.192;16.278;2023-06-04T02:58:54;1.93;;;1.70;;
42132;SDS011;70517;48.192;16.278;2023-06-04T03:01:55;2.30;;;1.52;;
42132;SDS011;70517;48.192;16.278;2023-06-04T03:04:56;3.23;;;1.60;;
42132;SDS011;70517;48.192;16.278;2023-06-04T03:07:56;3.27;;;1.70;;
42132;SDS011;70517;48.192;16.278;2023-06-04T03:10:58;2.83;;;1.65;;
42132;SDS011;70517;48.192;16.278;2023-06-04T03:13:58;1.90;;;1.50;;
42132;SDS011;70517;48.192;16.278;2023-06-04T03:16:59;2.03;;;1.43;;
42132;SDS011;70517;48.192;16.278;2023-06-04T03:20:01;3.28;;;1.50;;
42132;SDS011;70517;48.192;16.278;2023-06-04T03:23:01;2.10;;;1.33;;
42132;SDS011;70517;48.192;16.278;2023-06-04T03:26:01;1.90;;;1.50;;
42132;SDS011;70517;48.192;16.278;2023-06-04T03:29:02;2.50;;;1.60;;
42132;SDS011;70517;48.192;16.278;2023-06-04T03:32:02;3.80;;;1.63;;
42132;SDS011;70517;48.192;16.278;2023-06-04T03:35:02;1.73;;;1.40;;
42132;SDS011;70517;48.192;16.278;2023-06-04T03:38:03;3.07;;;1.70;;
42132;SDS011;70517;48.192;16.278;2023-06-04T03:41:03;1.90;;;1.43;;
42132;SDS011;70517;48.192;16.278;2023-06-04T03:44:03;2.83;;;1.47;;
42132;SDS011;70517;48.192;16.278;2023-06-04T03:47:03;1.90;;;1.50;;
42132;SDS011;70517;48.192;16.278;2023-06-04T03:50:04;3.63;;;1.60;;
42132;SDS011;70517;48.192;16.278;2023-06-04T03:53:04;3.00;;;1.63;;
42132;SDS011;70517;48.192;16.278;2023-06-04T03:56:05;2.20;;;1.43;;
42132;SDS011;70517;48.192;16.278;2023-06-04T03:59:05;6.53;;;1.67;;
42132;SDS011;70517;48.192;16.278;2023-06-04T04:02:05;2.77;;;1.63;;
42132;SDS011;70517;48.192;16.278;2023-06-04T04:05:06;2.93;;;1.50;;
42132;SDS011;70517;48.192;16.278;2023-06-04T04:08:06;3.90;;;1.48;;
42132;SDS011;70517;48.192;16.278;2023-06-04T04:11:09;2.38;;;1.73;;
42132;SDS011;70517;48.192;16.278;2023-06-04T04:14:09;3.67;;;1.73;;
42132;SDS011;70517;48.192;16.278;2023-06-04T04:17:09;2.57;;;1.60;;
42132;SDS011;70517;48.192;16.278;2023-06-04T04:20:10;1.60;;;1.40;;
42132;SDS011;70517;48.192;16.278;2023-06-04T04:23:10;5.57;;;1.63;;
42132;SDS011;70517;48.192;16.278;2023-06-04T04:26:10;1.50;;;1.40;;
42132;SDS011;70517;48.192;16.278;2023-06-04T04:29:11;2.95;;;1.70;;
42132;SDS011;70517;48.192;16.278;2023-06-04T04:32:12;3.85;;;2.08;;
42132;SDS011;70517;48.192;16.278;2023-06-04T04:35:12;8.13;;;2.20;;
42132;SDS011;70517;48.192;16.278;2023-06-04T04:38:12;2.07;;;1.53;;
42132;SDS011;70517;48.192;16.278;2023-06-04T04:41:13;2.50;;;1.47;;
42132;SDS011;70517;48.192;16.278;2023-06-04T04:44:13;2.80;;;2.03;;
42132;SDS011;70517;48.192;16.278;2023-06-04T04:47:14;3.30;;;1.83;;
42132;SDS011;70517;48.192;16.278;2023-06-04T04:50:14;2.42;;;1.38;;
42132;SDS011;70517;48.192;16.278;2023-06-04T04:53:14;3.00;;;1.70;;
42132;SDS011;70517;48.192;16.278;2023-06-04T04:56:15;4.33;;;1.70;;
42132;SDS011;70517;48.192;16.278;2023-06-04T04:59:15;5.47;;;1.80;;
42132;SDS011;70517;48.192;16.278;2023-06-04T05:02:15;2.40;;;1.60;;
42132;SDS011;70517;48.192;16.278;2023-06-04T05:05:15;5.28;;;1.98;;
42132;SDS011;70517;48.192;16.278;2023-06-04T05:08:16;5.97;;;2.50;;
42132;SDS011;70517;48.192;16.278;2023-06-04T05:11:16;3.53;;;2.00;;
42132;SDS011;70517;48.192;16.278;2023-06-04T05:14:16;2.10;;;1.83;;
42132;SDS011;70517;48.192;16.278;2023-06-04T05:17:17;2.00;;;1.42;;
42132;SDS011;70517;48.192;16.278;2023-06-04T05:20:21;4.72;;;2.38;;
42132;SDS011;70517;48.192;16.278;2023-06-04T05:23:22;2.42;;;1.98;;
42132;SDS011;70517;48.192;16.278;2023-06-04T05:26:23;4.90;;;1.93;;
42132;SDS011;70517;48.192;16.278;2023-06-04T05:29:25;3.35;;;1.83;;
42132;SDS011;70517;48.192;16.278;2023-06-04T05:32:25;2.30;;;1.77;;
42132;SDS011;70517;48.192;16.278;2023-06-04T05:35:28;1.45;;;1.35;;
42132;SDS011;70517;48.192;16.278;2023-06-04T05:38:28;1.80;;;1.53;;
42132;SDS011;70517;48.192;16.278;2023-06-04T05:41:30;3.90;;;1.63;;
42132;SDS011;70517;48.192;16.278;2023-06-04T05:44:31;3.47;;;1.60;;
42132;SDS011;70517;48.192;16.278;2023-06-04T05:47:31;6.20;;;1.70;;
42132;SDS011;70517;48.192;16.278;2023-06-04T05:50:31;2.20;;;1.80;;
42132;SDS011;70517;48.192;16.278;2023-06-04T05:53:32;2.23;;;1.70;;
42132;SDS011;70517;48.192;16.278;2023-06-04T05:56:32;4.38;;;1.75;;
42132;SDS011;70517;48.192;16.278;2023-06-04T05:59:32;2.70;;;2.00;;
42132;SDS011;70517;48.192;16.278;2023-06-04T06:02:33;2.83;;;1.90;;
42132;SDS011;70517;48.192;16.278;2023-06-04T06:05:34;2.50;;;1.73;;
42132;SDS011;70517;48.192;16.278;2023-06-04T06:08:35;3.03;;;1.70;;
42132;SDS011;70517;48.192;16.278;2023-06-04T06:11:35;2.43;;;1.60;;
42132;SDS011;70517;48.192;16.278;2023-06-04T06:14:36;2.15;;;1.70;;
42132;SDS011;70517;48.192;16.278;2023-06-04T06:20:37;3.23;;;1.60;;
42132;SDS011;70517;48.192;16.278;2023-06-04T06:26:37;2.53;;;1.63;;
42132;SDS011;70517;48.192;16.278;2023-06-04T06:29:38;3.27;;;2.03;;
42132;SDS011;70517;48.192;16.278;2023-06-04T06:32:39;2.70;;;1.80;;
42132;SDS011;70517;48.192;16.278;2023-06-04T06:35:39;5.67;;;1.93;;
42132;SDS011;70517;48.192;16.278;2023-06-04T06:38:40;2.65;;;2.33;;
42132;SDS011;70517;48.192;16.278;2023-06-04T06:44:40;3.55;;;2.10;;
42132;SDS011;70517;48.192;16.278;2023-06-04T06:50:41;3.60;;;2.00;;
42132;SDS011;70517;48.192;16.278;2023-06-04T06:53:41;3.20;;;2.27;;
42132;SDS011;70517;48.192;16.278;2023-06-04T06:59:42;5.03;;;2.28;;
42132;SDS011;70517;48.192;16.278;2023-06-04T07:05:42;3.35;;;2.25;;
42132;SDS011;70517;48.192;16.278;2023-06-04T07:11:42;2.80;;;2.13;;
42132;SDS011;70517;48.192;16.278;2023-06-04T07:17:43;2.60;;;2.10;;
42132;SDS011;70517;48.192;16.278;2023-06-04T07:23:43;2.55;;;1.77;;
42132;SDS011;70517;48.192;16.278;2023-06-04T07:26:45;2.60;;;2.10;;
42132;SDS011;70517;48.192;16.278;2023-06-04T07:32:46;2.65;;;1.80;;
42132;SDS011;70517;48.192;16.278;2023-06-04T07:35:47;3.63;;;2.42;;
42132;SDS011;70517;48.192;16.278;2023-06-04T07:38:47;2.40;;;2.20;;
42132;SDS011;70517;48.192;16.278;2023-06-04T07:41:47;3.60;;;2.23;;
42132;SDS011;70517;48.192;16.278;2023-06-04T07:44:47;5.80;;;2.03;;
42132;SDS011;70517;48.192;16.278;2023-06-04T07:47:48;3.03;;;2.20;;
42132;SDS011;70517;48.192;16.278;2023-06-04T07:50:48;4.53;;;2.00;;
42132;SDS011;70517;48.192;16.278;2023-06-04T07:53:48;3.07;;;2.27;;
42132;SDS011;70517;48.192;16.278;2023-06-04T07:56:49;3.22;;;1.98;;
42132;SDS011;70517;48.192;16.278;2023-06-04T07:59:49;2.35;;;2.15;;
42132;SDS011;70517;48.192;16.278;2023-06-04T08:02:49;3.42;;;2.42;;
42132;SDS011;70517;48.192;16.278;2023-06-04T08:05:50;4.78;;;2.42;;
42132;SDS011;70517;48.192;16.278;2023-06-04T08:08:51;4.80;;;2.10;;
42132;SDS011;70517;48.192;16.278;2023-06-04T08:11:51;3.93;;;2.40;;
42132;SDS011;70517;48.192;16.278;2023-06-04T08:14:51;3.40;;;2.45;;
42132;SDS011;70517;48.192;16.278;2023-06-04T08:17:51;2.38;;;2.08;;
42132;SDS011;70517;48.192;16.278;2023-06-04T08:20:52;4.33;;;2.57;;
42132;SDS011;70517;48.192;16.278;2023-06-04T08:23:52;3.17;;;2.40;;
42132;SDS011;70517;48.192;16.278;2023-06-04T08:26:52;2.63;;;2.38;;
42132;SDS011;70517;48.192;16.278;2023-06-04T08:29:53;3.00;;;2.28;;
42132;SDS011;70517;48.192;16.278;2023-06-04T08:32:53;4.10;;;2.65;;
42132;SDS011;70517;48.192;16.278;2023-06-04T08:35:53;2.67;;;2.47;;
42132;SDS011;70517;48.192;16.278;2023-06-04T08:38:54;2.63;;;2.37;;
42132;SDS011;70517;48.192;16.278;2023-06-04T08:41:56;3.22;;;2.70;;
42132;SDS011;70517;48.192;16.278;2023-06-04T08:44:59;6.60;;;2.40;;
42132;SDS011;70517;48.192;16.278;2023-06-04T08:48:00;3.40;;;2.58;;
42132;SDS011;70517;48.192;16.278;2023-06-04T08:51:01;2.45;;;2.20;;
42132;SDS011;70517;48.192;16.278;2023-06-04T08:54:03;3.53;;;2.30;;
42132;SDS011;70517;48.192;16.278;2023-06-04T08:57:04;2.83;;;2.42;;
42132;SDS011;70517;48.192;16.278;2023-06-04T09:00:04;2.55;;;2.30;;
42132;SDS011;70517;48.192;16.278;2023-06-04T09:03:07;2.78;;;2.30;;
42132;SDS011;70517;48.192;16.278;2023-06-04T09:06:07;3.10;;;2.45;;
42132;SDS011;70517;48.192;16.278;2023-06-04T09:09:09;3.10;;;2.10;;
42132;SDS011;70517;48.192;16.278;2023-06-04T09:12:10;1.98;;;1.85;;
42132;SDS011;70517;48.192;16.278;2023-06-04T09:15:11;2.95;;;1.98;;
42132;SDS011;70517;48.192;16.278;2023-06-04T09:18:12;3.42;;;2.17;;
42132;SDS011;70517;48.192;16.278;2023-06-04T09:21:12;2.30;;;2.03;;
42132;SDS011;70517;48.192;16.278;2023-06-04T09:24:12;2.43;;;2.20;;
42132;SDS011;70517;48.192;16.278;2023-06-04T09:27:16;2.47;;;1.83;;
42132;SDS011;70517;48.192;16.278;2023-06-04T09:30:17;2.95;;;2.13;;
42132;SDS011;70517;48.192;16.278;2023-06-04T09:33:17;5.45;;;2.40;;
42132;SDS011;70517;48.192;16.278;2023-06-04T09:36:17;2.67;;;2.40;;
42132;SDS011;70517;48.192;16.278;2023-06-04T09:39:18;3.20;;;2.90;;
42132;SDS011;70517;48.192;16.278;2023-06-04T09:42:18;3.08;;;1.92;;
42132;SDS011;70517;48.192;16.278;2023-06-04T09:45:31;4.40;;;2.10;;
42132;SDS011;70517;48.192;16.278;2023-06-04T09:48:32;4.30;;;2.30;;
42132;SDS011;70517;48.192;16.278;2023-06-04T09:51:32;2.47;;;2.00;;
42132;SDS011;70517;48.192;16.278;2023-06-04T09:54:42;2.78;;;2.03;;
42132;SDS011;70517;48.192;16.278;2023-06-04T09:57:44;3.50;;;1.77;;
42132;SDS011;70517;48.192;16.278;2023-06-04T10:00:44;3.97;;;2.50;;
42132;SDS011;70517;48.192;16.278;2023-06-04T10:03:46;4.43;;;2.35;;
42132;SDS011;70517;48.192;16.278;2023-06-04T10:06:47;2.17;;;1.98;;
42132;SDS011;70517;48.192;16.278;2023-06-04T10:09:48;3.03;;;2.10;;
42132;SDS011;70517;48.192;16.278;2023-06-04T10:12:50;2.95;;;2.17;;
42132;SDS011;70517;48.192;16.278;2023-06-04T10:15:50;3.58;;;2.30;;
42132;SDS011;70517;48.192;16.278;2023-06-04T10:18:52;2.65;;;2.13;;
42132;SDS011;70517;48.192;16.278;2023-06-04T10:21:52;2.15;;;1.83;;
42132;SDS011;70517;48.192;16.278;2023-06-04T10:24:52;1.90;;;1.77;;
42132;SDS011;70517;48.192;16.278;2023-06-04T10:27:52;8.93;;;2.27;;
42132;SDS011;70517;48.192;16.278;2023-06-04T10:30:53;2.30;;;2.10;;
42132;SDS011;70517;48.192;16.278;2023-06-04T10:33:54;1.97;;;1.83;;
42132;SDS011;70517;48.192;16.278;2023-06-04T10:36:54;3.75;;;2.47;;
42132;SDS011;70517;48.192;16.278;2023-06-04T10:39:55;2.22;;;1.98;;
42132;SDS011;70517;48.192;16.278;2023-06-04T10:43:04;2.25;;;2.05;;
42132;SDS011;70517;48.192;16.278;2023-06-04T10:46:11;2.63;;;2.00;;
42132;SDS011;70517;48.192;16.278;2023-06-04T10:49:11;3.33;;;2.08;;
42132;SDS011;70517;48.192;16.278;2023-06-04T10:52:15;2.38;;;1.98;;
42132;SDS011;70517;48.192;16.278;2023-06-04T10:55:15;2.60;;;2.30;;
42132;SDS011;70517;48.192;16.278;2023-06-04T10:58:15;9.77;;;8.77;;
42132;SDS011;70517;48.192;16.278;2023-06-04T11:01:22;22.95;;;20.60;;
42132;SDS011;70517;48.192;16.278;2023-06-04T11:04:23;41.53;;;37.65;;
42132;SDS011;70517;48.192;16.278;2023-06-04T11:07:24;13.68;;;12.20;;
42132;SDS011;70517;48.192;16.278;2023-06-04T11:10:30;5.95;;;5.38;;
42132;SDS011;70517;48.192;16.278;2023-06-04T11:13:31;3.60;;;3.22;;
42132;SDS011;70517;48.192;16.278;2023-06-04T11:16:31;5.27;;;2.70;;
42132;SDS011;70517;48.192;16.278;2023-06-04T11:19:35;2.27;;;2.07;;
42132;SDS011;70517;48.192;16.278;2023-06-04T11:22:35;2.30;;;1.98;;
42132;SDS011;70517;48.192;16.278;2023-06-04T11:25:36;2.50;;;1.90;;
42132;SDS011;70517;48.192;16.278;2023-06-04T11:28:36;1.97;;;1.70;;
42132;SDS011;70517;48.192;16.278;2023-06-04T11:31:46;2.75;;;2.05;;
42132;SDS011;70517;48.192;16.278;2023-06-04T11:34:47;2.28;;;1.95;;
42132;SDS011;70517;48.192;16.278;2023-06-04T11:37:53;3.90;;;2.53;;
42132;SDS011;70517;48.192;16.278;2023-06-04T11:41:01;2.88;;;2.22;;
42132;SDS011;70517;48.192;16.278;2023-06-04T11:44:03;2.95;;;2.10;;
42132;SDS011;70517;48.192;16.278;2023-06-04T11:47:05;2.58;;;1.88;;
42132;SDS011;70517;48.192;16.278;2023-06-04T11:50:07;2.78;;;1.63;;
42132;SDS011;70517;48.192;16.278;2023-06-04T11:53:08;2.65;;;1.70;;
42132;SDS011;70517;48.192;16.278;2023-06-04T11:56:09;3.13;;;1.73;;
42132;SDS011;70517;48.192;16.278;2023-06-04T11:59:15;3.55;;;1.92;;
42132;SDS011;70517;48.192;16.278;2023-06-04T12:02:15;2.97;;;1.67;;
42132;SDS011;70517;48.192;16.278;2023-06-04T12:05:16;2.17;;;1.60;;
42132;SDS011;70517;48.192;16.278;2023-06-04T12:08:18;3.38;;;1.85;;
42132;SDS011;70517;48.192;16.278;2023-06-04T12:11:34;2.03;;;1.80;;
42132;SDS011;70517;48.192;16.278;2023-06-04T12:14:34;2.00;;;1.80;;
42132;SDS011;70517;48.192;16.278;2023-06-04T12:17:35;1.67;;;1.50;;
42132;SDS011;70517;48.192;16.278;2023-06-04T12:20:36;5.30;;;1.70;;
42132;SDS011;70517;48.192;16.278;2023-06-04T12:23:37;1.60;;;1.50;;
42132;SDS011;70517;48.192;16.278;2023-06-04T12:26:37;2.33;;;1.80;;
42132;SDS011;70517;48.192;16.278;2023-06-04T12:29:40;2.40;;;1.92;;
42132;SDS011;70517;48.192;16.278;2023-06-04T12:32:40;3.87;;;2.33;;
42132;SDS011;70517;48.192;16.278;2023-06-04T12:35:42;2.78;;;2.00;;
42132;SDS011;70517;48.192;16.278;2023-06-04T12:38:42;2.33;;;2.00;;
42132;SDS011;70517;48.192;16.278;2023-06-04T12:41:44;2.10;;;1.90;;
42132;SDS011;70517;48.192;16.278;2023-06-04T12:44:45;3.17;;;1.55;;
42132;SDS011;70517;48.192;16.278;2023-06-04T12:47:46;1.80;;;1.70;;
42132;SDS011;70517;48.192;16.278;2023-06-04T12:50:47;2.40;;;2.17;;
42132;SDS011;70517;48.192;16.278;2023-06-04T12:53:47;2.53;;;1.70;;
42132;SDS011;70517;48.192;16.278;2023-06-04T12:56:48;4.10;;;2.00;;
42132;SDS011;70517;48.192;16.278;2023-06-04T12:59:48;3.17;;;2.00;;
42132;SDS011;70517;48.192;16.278;2023-06-04T13:02:48;2.50;;;1.73;;
42132;SDS011;70517;48.192;16.278;2023-06-04T13:05:48;4.23;;;1.67;;
42132;SDS011;70517;48.192;16.278;2023-06-04T13:08:51;1.92;;;1.48;;
42132;SDS011;70517;48.192;16.278;2023-06-04T13:11:51;3.10;;;1.75;;
42132;SDS011;70517;48.192;16.278;2023-06-04T13:14:51;4.10;;;2.00;;
42132;SDS011;70517;48.192;16.278;2023-06-04T13:17:52;2.13;;;1.83;;
42132;SDS011;70517;48.192;16.278;2023-06-04T13:20:52;3.70;;;1.67;;
42132;SDS011;70517;48.192;16.278;2023-06-04T13:23:52;3.07;;;1.90;;
42132;SDS011;70517;48.192;16.278;2023-06-04T13:26:52;1.90;;;1.77;;
42132;SDS011;70517;48.192;16.278;2023-06-04T13:29:53;2.30;;;1.83;;
42132;SDS011;70517;48.192;16.278;2023-06-04T13:32:53;2.87;;;2.20;;
42132;SDS011;70517;48.192;16.278;2023-06-04T13:35:53;4.20;;;1.80;;
42132;SDS011;70517;48.192;16.278;2023-06-04T13:38:54;2.83;;;2.00;;
42132;SDS011;70517;48.192;16.278;2023-06-04T13:41:54;1.88;;;1.77;;
42132;SDS011;70517;48.192;16.278;2023-06-04T13:44:55;6.47;;;2.37;;
42132;SDS011;70517;48.192;16.278;2023-06-04T13:47:55;3.55;;;2.05;;
42132;SDS011;70517;48.192;16.278;2023-06-04T13:50:58;3.17;;;1.88;;
42132;SDS011;70517;48.192;16.278;2023-06-04T13:53:58;3.43;;;2.30;;
42132;SDS011;70517;48.192;16.278;2023-06-04T13:57:01;2.67;;;2.17;;
42132;SDS011;70517;48.192;16.278;2023-06-04T14:00:02;3.00;;;1.95;;
42132;SDS011;70517;48.192;16.278;2023-06-04T14:03:03;3.28;;;1.98;;
42132;SDS011;70517;48.192;16.278;2023-06-04T14:06:03;2.92;;;1.85;;
42132;SDS011;70517;48.192;16.278;2023-06-04T14:09:04;2.23;;;1.83;;
42132;SDS011;70517;48.192;16.278;2023-06-04T14:12:05;2.13;;;1.80;;
42132;SDS011;70517;48.192;16.278;2023-06-04T14:15:06;2.22;;;2.03;;
42132;SDS011;70517;48.192;16.278;2023-06-04T14:18:06;5.25;;;2.30;;
42132;SDS011;70517;48.192;16.278;2023-06-04T14:21:08;2.90;;;1.80;;
42132;SDS011;70517;48.192;16.278;2023-06-04T14:24:08;2.25;;;1.90;;
42132;SDS011;70517;48.192;16.278;2023-06-04T14:27:08;2.70;;;2.10;;
42132;SDS011;70517;48.192;16.278;2023-06-04T14:30:09;3.13;;;2.35;;
42132;SDS011;70517;48.192;16.278;2023-06-04T14:33:09;2.78;;;2.05;;
42132;SDS011;70517;48.192;16.278;2023-06-04T14:36:09;2.33;;;2.03;;
42132;SDS011;70517;48.192;16.278;2023-06-04T14:39:10;2.65;;;2.15;;
42132;SDS011;70517;48.192;16.278;2023-06-04T14:42:10;2.08;;;1.88;;
42132;SDS011;70517;48.192;16.278;2023-06-04T14:45:11;3.13;;;2.20;;
42132;SDS011;70517;48.192;16.278;2023-06-04T14:48:11;1.93;;;1.83;;
42132;SDS011;70517;48.192;16.278;2023-06-04T14:51:11;2.10;;;1.80;;
42132;SDS011;70517;48.192;16.278;2023-06-04T14:54:12;2.30;;;1.90;;
42132;SDS011;70517;48.192;16.278;2023-06-04T14:57:12;2.60;;;1.70;;
42132;SDS011;70517;48.192;16.278;2023-06-04T15:00:14;2.80;;;1.85;;
42132;SDS011;70517;48.192;16.278;2023-06-04T15:03:14;2.03;;;1.83;;
42132;SDS011;70517;48.192;16.278;2023-06-04T15:06:15;3.10;;;2.10;;
42132;SDS011;70517;48.192;16.278;2023-06-04T15:09:16;4.03;;;1.90;;
42132;SDS011;70517;48.192;16.278;2023-06-04T15:12:16;2.70;;;2.03;;
42132;SDS011;70517;48.192;16.278;2023-06-04T15:15:18;3.15;;;1.95;;
42132;SDS011;70517;48.192;16.278;2023-06-04T15:18:18;2.00;;;1.90;;
42132;SDS011;70517;48.192;16.278;2023-06-04T15:21:20;2.58;;;2.08;;
42132;SDS011;70517;48.192;16.278;2023-06-04T15:24:21;4.50;;;1.73;;
42132;SDS011;70517;48.192;16.278;2023-06-04T15:27:21;3.30;;;1.77;;
42132;SDS011;70517;48.192;16.278;2023-06-04T15:30:21;4.07;;;1.87;;
42132;SDS011;70517;48.192;16.278;2023-06-04T15:33:22;3.22;;;2.15;;
42132;SDS011;70517;48.192;16.278;2023-06-04T15:36:22;2.00;;;1.90;;
42132;SDS011;70517;48.192;16.278;2023-06-04T15:39:23;2.13;;;1.93;;
42132;SDS011;70517;48.192;16.278;2023-06-04T15:42:23;3.83;;;2.17;;
42132;SDS011;70517;48.192;16.278;2023-06-04T15:45:24;2.55;;;1.80;;
42132;SDS011;70517;48.192;16.278;2023-06-04T15:48:24;2.70;;;2.25;;
42132;SDS011;70517;48.192;16.278;2023-06-04T15:51:27;4.25;;;2.22;;
42132;SDS011;70517;48.192;16.278;2023-06-04T15:54:27;3.78;;;2.20;;
42132;SDS011;70517;48.192;16.278;2023-06-04T15:57:27;3.67;;;2.13;;
42132;SDS011;70517;48.192;16.278;2023-06-04T16:00:28;2.97;;;2.20;;
42132;SDS011;70517;48.192;16.278;2023-06-04T16:03:28;2.33;;;2.10;;
42132;SDS011;70517;48.192;16.278;2023-06-04T16:06:28;5.17;;;2.00;;
42132;SDS011;70517;48.192;16.278;2023-06-04T16:09:28;4.10;;;2.73;;
42132;SDS011;70517;48.192;16.278;2023-06-04T16:12:29;2.33;;;2.13;;
42132;SDS011;70517;48.192;16.278;2023-06-04T16:15:29;4.73;;;2.23;;
42132;SDS011;70517;48.192;16.278;2023-06-04T16:18:29;2.33;;;1.97;;
42132;SDS011;70517;48.192;16.278;2023-06-04T16:21:29;2.50;;;2.13;;
42132;SDS011;70517;48.192;16.278;2023-06-04T16:24:30;2.22;;;2.03;;
42132;SDS011;70517;48.192;16.278;2023-06-04T16:27:30;2.63;;;2.00;;
42132;SDS011;70517;48.192;16.278;2023-06-04T16:30:31;4.43;;;2.28;;
42132;SDS011;70517;48.192;16.278;2023-06-04T16:33:32;3.43;;;2.20;;
42132;SDS011;70517;48.192;16.278;2023-06-04T16:36:32;2.35;;;1.92;;
42132;SDS011;70517;48.192;16.278;2023-06-04T16:39:33;2.42;;;1.98;;
42132;SDS011;70517;48.192;16.278;2023-06-04T16:42:33;2.63;;;2.13;;
42132;SDS011;70517;48.192;16.278;2023-06-04T16:45:34;5.45;;;2.40;;
42132;SDS011;70517;48.192;16.278;2023-06-04T16:48:34;3.58;;;2.53;;
42132;SDS011;70517;48.192;16.278;2023-06-04T16:51:36;2.80;;;2.55;;
42132;SDS011;70517;48.192;16.278;2023-06-04T16:54:37;3.55;;;2.53;;
42132;SDS011;70517;48.192;16.278;2023-06-04T16:57:38;3.80;;;2.13;;
42132;SDS011;70517;48.192;16.278;2023-06-04T17:00:38;2.42;;;2.10;;
42132;SDS011;70517;48.192;16.278;2023-06-04T17:03:38;2.93;;;2.13;;
42132;SDS011;70517;48.192;16.278;2023-06-04T17:06:39;2.40;;;2.20;;
42132;SDS011;70517;48.192;16.278;2023-06-04T17:09:39;3.85;;;2.60;;
42132;SDS011;70517;48.192;16.278;2023-06-04T17:12:39;3.05;;;2.22;;
42132;SDS011;70517;48.192;16.278;2023-06-04T17:15:40;3.08;;;2.13;;
42132;SDS011;70517;48.192;16.278;2023-06-04T17:18:40;2.60;;;2.13;;
42132;SDS011;70517;48.192;16.278;2023-06-04T17:21:40;3.05;;;2.08;;
42132;SDS011;70517;48.192;16.278;2023-06-04T17:24:40;3.47;;;1.93;;
42132;SDS011;70517;48.192;16.278;2023-06-04T17:27:41;3.00;;;2.17;;
42132;SDS011;70517;48.192;16.278;2023-06-04T17:30:41;4.00;;;2.63;;
42132;SDS011;70517;48.192;16.278;2023-06-04T17:33:41;2.80;;;2.33;;
42132;SDS011;70517;48.192;16.278;2023-06-04T17:36:41;4.57;;;2.37;;
42132;SDS011;70517;48.192;16.278;2023-06-04T17:39:43;4.35;;;2.78;;
42132;SDS011;70517;48.192;16.278;2023-06-04T17:45:46;3.42;;;2.10;;
42132;SDS011;70517;48.192;16.278;2023-06-04T17:51:46;4.18;;;2.10;;
42132;SDS011;70517;48.192;16.278;2023-06-04T17:57:48;2.95;;;2.05;;
42132;SDS011;70517;48.192;16.278;2023-06-04T18:00:48;5.23;;;2.50;;
42132;SDS011;70517;48.192;16.278;2023-06-04T18:06:49;3.73;;;2.37;;
